Time;durP1;ratioP1;P1;durP2;ratioP2;P2;SDS_P1;SDS_P2;PMS_P1;PMS_P2;Temp;Humidity;BMP_temperature;BMP_pressure;BME280_temperature;BME280_humidity;BME280_pressure;Samples;Min_cycle;Max_cycle;Signal;HPM_P1;HPM_P2
2022/10/04 00:01:03;;;;;;;12.88;6.07;;;;;;;22.63;43.17;102388.16;5104728;27;20031;-73
2022/10/04 00:03:38;;;;;;;13.65;6.28;;;;;;;22.85;42.66;102389.09;5104153;27;20499;-73
2022/10/04 00:06:11;;;;;;;17.92;6.65;;;;;;;22.50;43.77;102393.06;5089999;28;20031;-73
2022/10/04 00:08:41;;;;;;;;;;;;;;;22.82;43.28;102399.88;5089925;28;20114;-73
2022/10/04 00:11:16;;;;;;;17.23;6.82;;;;;;;21.95;44.75;102407.31;5088958;28;19912;-73
2022/10/04 00:13:48;;;;;;;24.60;7.20;;;;;;;22.43;43.71;102395.06;5092870;27;20036;-73
2022/10/04 00:16:27;;;;;;;16.17;7.10;;;;;;;21.80;45.96;102395.41;5090582;28;20028;-73
2022/10/04 00:19:23;;;;;;;12.25;5.80;;;;;;;22.43;44.23;102397.72;5092176;28;20039;-73
2022/10/04 00:21:55;;;;;;;11.43;5.95;;;;;;;22.62;43.58;102386.41;5088880;28;20502;-73
2022/10/04 00:24:26;;;;;;;21.70;7.15;;;;;;;22.88;43.10;102383.66;5088628;28;20245;-73
2022/10/04 00:26:52;;;;;;;10.65;6.03;;;;;;;22.60;43.63;102377.59;5090552;28;20028;-73
2022/10/04 00:29:31;;;;;;;10.98;6.05;;;;;;;23.10;42.59;102382.84;5091025;28;20093;-73
2022/10/04 00:32:11;;;;;;;13.48;6.78;;;;;;;21.80;45.48;102387.41;5087277;28;20032;-73
2022/10/04 00:34:48;;;;;;;9.73;6.03;;;;;;;22.65;43.45;102386.31;5088099;28;20044;-73
2022/10/04 00:37:17;;;;;;;16.35;6.20;;;;;;;22.97;42.75;102370.91;5090306;28;20054;-73
2022/10/04 00:39:45;;;;;;;19.95;6.70;;;;;;;22.77;43.36;102366.34;5089837;28;20480;-73
2022/10/04 00:42:29;;;;;;;15.13;7.05;;;;;;;23.02;42.92;102375.13;5088391;28;20298;-73
2022/10/04 00:45:05;;;;;;;21.40;6.35;;;;;;;22.57;43.90;102367.91;5088204;28;20050;-73
2022/10/04 00:47:56;;;;;;;12.52;6.28;;;;;;;22.56;43.65;102379.53;5089893;28;20042;-74
2022/10/04 00:50:40;;;;;;;11.98;5.80;;;;;;;22.83;43.17;102374.97;5089338;28;20062;-74
2022/10/04 00:53:50;;;;;;;10.88;5.63;;;;;;;22.83;42.87;102380.31;5091088;28;20028;-73
2022/10/04 00:56:34;;;;;;;12.73;6.40;;;;;;;23.00;42.63;102386.81;5042402;28;20044;-73
2022/10/04 00:59:13;;;;;;;11.35;5.75;;;;;;;22.72;42.99;102382.47;5100907;28;20435;-73
2022/10/04 01:01:38;;;;;;;15.18;6.05;;;;;;;22.78;42.88;102387.59;5105379;28;20115;-73
2022/10/04 01:04:12;;;;;;;15.10;6.18;;;;;;;22.23;43.79;102378.88;5088548;28;20118;-73
2022/10/04 01:06:39;;;;;;;11.75;5.47;;;;;;;22.07;44.49;102374.09;5089859;28;20111;-73
2022/10/04 01:09:08;;;;;;;14.15;6.53;;;;;;;22.10;44.59;102363.31;5088821;28;20028;-72
2022/10/04 01:11:43;;;;;;;14.07;7.43;;;;;;;22.12;43.70;102357.94;5088394;28;20451;-73
2022/10/04 01:14:27;;;;;;;19.02;6.65;;;;;;;20.88;46.56;102355.66;5092892;28;20028;-72
2022/10/04 01:16:52;;;;;;;14.38;6.82;;;;;;;21.86;44.72;102351.75;5088687;28;20121;-73
2022/10/04 01:19:21;;;;;;;15.25;7.72;;;;;;;21.21;45.84;102350.25;5088960;28;20514;-73
2022/10/04 01:21:56;;;;;;;15.15;7.65;;;;;;;20.96;46.83;102345.66;5090074;28;20044;-73
2022/10/04 01:24:22;;;;;;;14.07;7.97;;;;;;;21.68;44.84;102350.56;5088182;28;20024;-72
2022/10/04 01:26:47;;;;;;;16.35;8.18;;;;;;;22.08;43.34;102332.34;5088268;28;20369;-73
2022/10/04 01:29:15;;;;;;;15.93;8.32;;;;;;;21.63;44.67;102336.53;5089762;28;20051;-73
2022/10/04 01:31:52;;;;;;;17.20;8.25;;;;;;;21.97;43.64;102330.09;5090959;28;20032;-74
2022/10/04 01:34:27;;;;;;;19.98;8.70;;;;;;;22.12;43.48;102329.53;5092264;28;20473;-73
2022/10/04 01:36:56;;;;;;;18.27;8.77;;;;;;;21.90;43.64;102331.19;5088546;28;20035;-73
2022/10/04 01:39:23;;;;;;;19.95;8.60;;;;;;;21.63;44.42;102332.06;5089560;28;20035;-73
2022/10/04 01:41:55;;;;;;;19.63;8.82;;;;;;;21.40;44.69;102315.97;5089254;28;20070;-73
2022/10/04 01:44:30;;;;;;;15.00;9.48;;;;;;;21.68;44.22;102305.34;5110440;28;20036;-73
2022/10/04 01:47:01;;;;;;;24.47;9.87;;;;;;;21.75;43.59;102298.88;5087245;28;20081;-73
2022/10/04 01:49:33;;;;;;;19.23;8.83;;;;;;;21.13;45.19;102300.84;5089411;28;20496;-73
2022/10/04 01:52:06;;;;;;;22.33;9.82;;;;;;;21.56;44.28;102292.44;5089036;28;20074;-73
2022/10/04 01:54:42;;;;;;;;;;;;;;;21.48;44.37;102290.84;5089620;28;20127;-73
2022/10/04 01:57:21;;;;;;;18.90;9.30;;;;;;;21.36;44.55;102285.94;5093927;28;19912;-73
2022/10/04 02:00:01;;;;;;;17.83;9.57;;;;;;;21.41;44.62;102284.00;5093042;28;20491;-73
2022/10/04 02:02:33;;;;;;;22.93;10.57;;;;;;;21.44;44.24;102283.88;5089951;28;20028;-73
2022/10/04 02:05:02;;;;;;;16.40;9.95;;;;;;;21.74;43.38;102272.31;5092976;28;20047;-73
2022/10/04 02:07:31;;;;;;;16.33;8.73;;;;;;;21.59;44.24;102271.06;5093869;28;20024;-73
2022/10/04 02:10:01;;;;;;;18.63;9.87;;;;;;;21.35;44.48;102263.78;5092710;28;20450;-73
2022/10/04 02:12:32;;;;;;;18.05;8.82;;;;;;;21.43;44.30;102255.59;5093186;28;20024;-73
2022/10/04 02:15:01;;;;;;;16.13;9.53;;;;;;;21.65;43.89;102255.75;5095502;28;20042;-73
2022/10/04 02:17:36;;;;;;;14.83;9.60;;;;;;;21.97;42.71;102240.44;5096970;27;20104;-73
2022/10/04 02:20:12;;;;;;;26.23;10.15;;;;;;;21.26;44.25;102237.50;5103496;28;20122;-73
2022/10/04 02:22:38;;;;;;;20.07;10.13;;;;;;;21.09;44.99;102230.09;5076855;28;20601;-73
2022/10/04 02:25:05;;;;;;;17.03;10.20;;;;;;;20.54;45.79;102231.75;5092663;28;20020;-73
2022/10/04 02:27:31;;;;;;;20.73;10.47;;;;;;;21.15;44.34;102235.19;5090253;28;20023;-73
2022/10/04 02:30:05;;;;;;;21.60;10.73;;;;;;;21.06;44.68;102219.56;5091196;28;20024;-73
2022/10/04 02:35:17;;;;;;;21.00;10.57;;;;;;;20.92;44.98;102213.81;5093641;28;20126;-73
2022/10/04 02:37:44;;;;;;;19.90;10.50;;;;;;;20.88;45.09;102215.69;5090987;28;20027;-73
2022/10/04 02:40:15;;;;;;;20.80;10.23;;;;;;;20.84;45.01;102209.59;5093165;28;20024;-73
2022/10/04 02:42:50;;;;;;;18.47;10.70;;;;;;;20.16;46.73;102210.72;5091539;28;20032;-73
2022/10/04 02:45:22;;;;;;;16.73;10.77;;;;;;;20.66;45.70;102207.47;5091827;28;20027;-73
2022/10/04 02:47:59;;;;;;;22.17;10.68;;;;;;;20.81;44.83;102208.81;5092136;28;20048;-73
2022/10/04 02:50:38;;;;;;;19.43;10.67;;;;;;;20.47;46.17;102200.09;5090415;28;20180;-73
2022/10/04 02:53:36;;;;;;;21.90;11.13;;;;;;;20.94;44.90;102193.38;5117831;27;20487;-73
2022/10/04 02:56:02;;;;;;;24.83;11.67;;;;;;;20.43;45.93;102195.78;5089223;28;20044;-73
2022/10/04 02:58:29;;;;;;;27.97;12.17;;;;;;;20.32;46.25;102184.63;5090193;28;21701;-73
2022/10/04 03:00:57;;;;;;;26.07;11.77;;;;;;;20.09;46.60;102174.66;5094685;28;20024;-73
2022/10/04 03:03:33;;;;;;;22.03;12.53;;;;;;;20.01;46.92;102174.88;5091223;28;20039;-73
2022/10/04 03:06:08;;;;;;;24.90;12.83;;;;;;;20.62;45.54;102171.28;5079619;28;20016;-73
2022/10/04 03:08:43;;;;;;;23.13;12.00;;;;;;;20.42;46.00;102167.47;5080780;28;20028;-73
2022/10/04 03:11:10;;;;;;;25.87;12.57;;;;;;;19.64;47.95;102175.84;5090435;28;20628;-73
2022/10/04 03:13:43;;;;;;;23.47;12.30;;;;;;;20.48;45.69;102169.97;5093252;28;20042;-73
2022/10/04 03:16:09;;;;;;;25.00;11.97;;;;;;;20.84;44.64;102167.09;5090981;28;20039;-73
2022/10/04 03:18:36;;;;;;;25.83;12.17;;;;;;;20.81;44.75;102167.19;5090705;28;20016;-73
2022/10/04 03:21:06;;;;;;;24.47;12.07;;;;;;;20.82;44.67;102171.56;5091522;28;20110;-73
2022/10/04 03:23:32;;;;;;;23.17;11.47;;;;;;;20.59;45.60;102166.94;5090390;28;20033;-73
2022/10/04 03:26:03;;;;;;;25.30;13.20;;;;;;;20.55;45.62;102159.13;5090125;28;20036;-73
2022/10/04 03:28:29;;;;;;;24.43;12.53;;;;;;;20.33;45.91;102154.47;5090589;28;20123;-73
2022/10/04 03:30:56;;;;;;;21.37;12.30;;;;;;;20.63;44.98;102157.97;5094662;28;20110;-73
2022/10/04 03:33:24;;;;;;;24.13;13.10;;;;;;;20.61;45.00;102153.66;5088930;28;20073;-73
2022/10/04 03:35:53;;;;;;;23.13;11.97;;;;;;;20.49;45.77;102150.44;5094702;28;20020;-73
2022/10/04 03:38:21;;;;;;;19.67;11.60;;;;;;;20.49;45.68;102161.06;5089138;28;20329;-73
2022/10/04 03:40:55;;;;;;;23.77;12.43;;;;;;;20.09;46.50;102154.28;5087610;28;20219;-74
2022/10/04 03:43:25;;;;;;;20.60;12.27;;;;;;;20.21;46.10;102149.53;5091160;28;20035;-73
2022/10/04 03:45:52;;;;;;;25.37;11.23;;;;;;;20.24;46.18;102149.47;5090774;28;20081;-73
2022/10/04 03:48:26;;;;;;;23.77;11.77;;;;;;;19.77;46.80;102145.44;5088836;28;20016;-73
2022/10/04 03:50:52;;;;;;;28.57;12.97;;;;;;;19.63;47.97;102134.31;5093621;28;20399;-74
2022/10/04 03:53:28;;;;;;;23.80;12.17;;;;;;;20.24;46.52;102139.69;5090663;28;20079;-73
2022/10/04 03:55:55;;;;;;;23.53;11.87;;;;;;;20.14;46.91;102128.50;5090035;28;20364;-74
2022/10/04 03:58:24;;;;;;;21.03;11.90;;;;;;;20.68;45.37;102134.81;5090854;28;20493;-73
2022/10/04 04:01:25;;;;;;;25.70;13.00;;;;;;;20.77;44.94;102143.41;5082582;28;20020;-73
2022/10/04 04:04:17;;;;;;;22.23;11.00;;;;;;;21.03;44.34;102134.59;5086013;28;20032;-73
2022/10/04 04:06:48;;;;;;;17.23;11.43;;;;;;;19.98;46.26;102133.38;5080574;28;20039;-73
2022/10/04 04:09:24;;;;;;;26.07;12.40;;;;;;;20.29;45.78;102142.22;5092661;28;20095;-73
2022/10/04 04:11:54;;;;;;;17.47;12.07;;;;;;;20.21;46.03;102138.91;5093528;28;20028;-73
2022/10/04 04:14:26;;;;;;;21.63;12.37;;;;;;;20.60;45.09;102141.28;5092314;28;20032;-73
2022/10/04 04:16:53;;;;;;;;;;;;;;;20.21;45.72;102134.50;5079494;28;20026;-73
2022/10/04 04:19:22;;;;;;;24.00;13.07;;;;;;;19.71;46.51;102144.75;5087976;28;19911;-73
2022/10/04 04:21:48;;;;;;;22.03;12.90;;;;;;;20.28;45.49;102140.50;5092104;28;20059;-75
2022/10/04 04:24:23;;;;;;;22.70;13.00;;;;;;;20.49;45.15;102137.16;5091574;28;20027;-74
2022/10/04 04:26:54;;;;;;;29.30;14.90;;;;;;;20.64;44.75;102142.91;5090981;28;20032;-73
2022/10/04 04:29:42;;;;;;;25.93;13.87;;;;;;;20.54;44.66;102142.34;5089467;28;20022;-73
2022/10/04 04:32:33;;;;;;;19.80;12.60;;;;;;;20.42;45.37;102143.56;5090919;28;20077;-73
2022/10/04 04:35:05;;;;;;;19.50;12.27;;;;;;;20.32;45.23;102139.47;5089075;28;20024;-74
2022/10/04 04:37:31;;;;;;;;;;;;;;;20.20;45.35;102131.88;5092868;28;20361;-74
2022/10/04 04:40:20;;;;;;;25.07;13.67;;;;;;;20.43;45.21;102140.00;5090566;28;19934;-73
2022/10/04 04:42:48;;;;;;;24.00;13.40;;;;;;;19.95;46.10;102137.91;5089588;28;20028;-74
2022/10/04 04:45:21;;;;;;;26.20;13.20;;;;;;;20.09;45.63;102140.16;5089851;28;20028;-74
2022/10/04 04:47:49;;;;;;;24.27;12.97;;;;;;;19.83;46.37;102134.69;5086181;28;20032;-74
2022/10/04 04:50:18;;;;;;;23.73;13.17;;;;;;;20.10;46.10;102137.47;5091061;28;20039;-73
2022/10/04 04:52:58;;;;;;;22.27;12.07;;;;;;;20.49;45.02;102139.81;5088614;28;20024;-74
2022/10/04 04:55:28;;;;;;;24.37;13.70;;;;;;;20.06;45.89;102129.63;5087343;28;20039;-73
2022/10/04 04:57:57;;;;;;;22.67;12.83;;;;;;;20.56;45.18;102135.19;5087090;28;20025;-74
2022/10/04 05:00:30;;;;;;;28.97;13.27;;;;;;;20.41;45.18;102139.19;5104329;28;20024;-73
2022/10/04 05:02:58;;;;;;;21.53;12.23;;;;;;;20.24;45.87;102144.16;5091835;28;20024;-74
2022/10/04 05:05:29;;;;;;;23.97;12.97;;;;;;;20.43;45.11;102140.00;5094707;28;20020;-73
2022/10/04 05:08:15;;;;;;;27.03;13.17;;;;;;;20.48;45.18;102143.41;5090137;28;20028;-73
2022/10/04 05:10:46;;;;;;;25.23;11.73;;;;;;;19.93;45.69;102150.34;5089007;28;20116;-74
2022/10/04 05:13:13;;;;;;;21.10;12.40;;;;;;;19.52;47.94;102137.28;5091807;28;20024;-73
2022/10/04 05:15:40;;;;;;;31.70;12.50;;;;;;;19.62;47.41;102140.56;5088500;28;20028;-73
2022/10/04 05:18:27;;;;;;;23.00;12.97;;;;;;;19.65;47.58;102140.47;5091142;28;20024;-73
2022/10/04 05:20:54;;;;;;;27.37;13.33;;;;;;;19.34;47.82;102133.34;5090586;28;20102;-73
2022/10/04 05:23:20;;;;;;;25.87;13.17;;;;;;;19.41;47.53;102131.38;5090348;28;20110;-74
2022/10/04 05:25:46;;;;;;;24.70;12.53;;;;;;;19.59;47.74;102135.31;5089826;28;20372;-73
2022/10/04 05:28:17;;;;;;;25.03;12.97;;;;;;;18.95;48.68;102133.44;5087044;28;20024;-73
2022/10/04 05:30:42;;;;;;;20.57;11.97;;;;;;;19.01;48.79;102127.97;5091500;28;20031;-73
2022/10/04 05:33:10;;;;;;;28.90;13.10;;;;;;;18.62;51.04;102133.31;5087673;28;20032;-73
2022/10/04 05:36:00;;;;;;;24.83;12.83;;;;;;;18.48;51.56;102126.56;5094175;28;20024;-73
2022/10/04 05:39:05;;;;;;;23.87;13.50;;;;;;;19.17;49.02;102119.66;5093935;28;20028;-73
2022/10/04 05:41:54;;;;;;;23.33;12.97;;;;;;;19.17;49.93;102119.66;5087996;28;20040;-74
2022/10/04 05:44:34;;;;;;;24.83;12.40;;;;;;;20.06;46.91;102117.25;5093769;28;20391;-73
2022/10/04 05:47:02;;;;;;;25.13;12.90;;;;;;;19.72;46.90;102125.25;5093356;28;20020;-73
2022/10/04 05:49:33;;;;;;;28.10;12.50;;;;;;;19.47;47.76;102124.16;5093974;28;20044;-73
2022/10/04 05:52:02;;;;;;;23.10;13.20;;;;;;;19.17;48.22;102122.31;5094241;28;20020;-73
2022/10/04 05:54:32;;;;;;;24.77;12.07;;;;;;;19.28;48.47;102118.47;5094406;28;20281;-74
2022/10/04 05:57:14;;;;;;;23.97;13.67;;;;;;;18.96;49.10;102125.47;5094046;28;20020;-73
2022/10/04 05:59:49;;;;;;;24.80;13.23;;;;;;;18.88;50.13;102114.19;5094006;28;20052;-74
2022/10/04 06:02:30;;;;;;;21.57;12.50;;;;;;;19.43;47.69;102108.38;5093321;28;20038;-74
2022/10/04 06:05:25;;;;;;;25.73;14.47;;;;;;;19.87;46.62;102113.38;5093782;28;20028;-73
2022/10/04 06:08:00;;;;;;;24.63;13.83;;;;;;;19.52;47.55;102107.25;5094430;28;20031;-73
2022/10/04 06:10:45;;;;;;;27.90;14.37;;;;;;;19.10;48.87;102111.88;5093701;28;20373;-73
2022/10/04 06:13:27;;;;;;;27.00;14.27;;;;;;;18.87;48.90;102114.19;5093672;28;20024;-73
2022/10/04 06:16:11;;;;;;;27.40;14.23;;;;;;;18.88;48.77;102113.31;5092867;28;20056;-74
2022/10/04 06:18:57;;;;;;;29.27;15.50;;;;;;;19.58;47.44;102112.41;5093517;28;20114;-73
2022/10/04 06:21:35;;;;;;;27.40;15.53;;;;;;;19.09;48.56;102110.13;5094050;28;20032;-73
2022/10/04 06:24:16;;;;;;;28.57;14.07;;;;;;;18.97;48.76;102106.00;5093482;28;20028;-74
2022/10/04 06:26:47;;;;;;;25.23;14.77;;;;;;;18.75;48.94;102100.34;5093274;28;20059;-73
2022/10/04 06:29:24;;;;;;;26.00;16.17;;;;;;;19.22;48.67;102094.78;5092623;28;20031;-73
2022/10/04 06:32:17;;;;;;;34.07;16.40;;;;;;;19.15;48.26;102094.06;5093530;28;20020;-73
2022/10/04 06:34:48;;;;;;;35.80;16.80;;;;;;;18.80;49.49;102098.44;5093302;28;20032;-73
2022/10/04 06:37:38;;;;;;;31.47;15.53;;;;;;;18.88;49.33;102086.84;5092591;28;20101;-73
2022/10/04 06:40:26;;;;;;;34.60;15.93;;;;;;;18.36;50.75;102081.84;5092249;28;20036;-73
2022/10/04 06:43:25;;;;;;;25.20;16.27;;;;;;;19.02;49.07;102071.44;5092587;28;20536;-73
2022/10/04 06:46:47;;;;;;;25.97;15.80;;;;;;;18.73;50.14;102080.97;5093235;28;20035;-74
2022/10/04 06:49:18;;;;;;;32.17;16.30;;;;;;;18.19;52.39;102081.34;5070791;28;20033;-73
2022/10/04 06:52:19;;;;;;;29.57;16.77;;;;;;;18.28;52.40;102083.78;5071744;28;20035;-73
2022/10/04 06:54:44;;;;;;;29.67;16.37;;;;;;;19.49;49.25;102087.88;5070065;28;20077;-73
2022/10/04 06:57:31;;;;;;;31.27;17.23;;;;;;;19.37;50.13;102082.00;5092178;28;20032;-73
2022/10/04 07:00:03;;;;;;;29.57;15.77;;;;;;;19.02;51.06;102086.47;5092925;28;20036;-73
2022/10/04 07:02:36;;;;;;;35.15;17.85;;;;;;;18.21;52.06;102088.34;5093989;28;20153;-73
2022/10/04 07:05:11;;;;;;;34.50;17.57;;;;;;;18.22;54.63;102097.16;5093486;28;20533;-73
2022/10/04 07:07:40;;;;;;;28.47;15.87;;;;;;;18.92;52.31;102085.84;5092772;28;20027;-73
2022/10/04 07:10:25;;;;;;;28.50;15.40;;;;;;;18.59;52.85;102088.38;5092637;28;20104;-73
2022/10/04 07:13:04;;;;;;;30.60;16.73;;;;;;;18.67;54.08;102086.41;5093951;28;20024;-73
2022/10/04 07:15:55;;;;;;;31.30;16.90;;;;;;;18.30;54.64;102082.84;5092567;28;20384;-73
2022/10/04 07:18:56;;;;;;;35.67;16.87;;;;;;;19.65;51.74;102087.44;5091691;28;20028;-73
2022/10/04 07:21:26;;;;;;;30.97;16.87;;;;;;;18.44;54.33;102085.19;5092307;28;20084;-73
2022/10/04 07:24:02;;;;;;;34.13;17.47;;;;;;;18.97;54.09;102081.28;5093625;28;20507;-73
2022/10/04 07:26:44;;;;;;;35.40;17.43;;;;;;;19.44;52.80;102089.78;5091704;28;20023;-73
2022/10/04 07:29:24;;;;;;;28.57;16.40;;;;;;;19.89;51.52;102091.19;5092247;28;20168;-73
2022/10/04 07:32:04;;;;;;;25.90;15.47;;;;;;;19.77;51.89;102087.09;5091464;28;20024;-73
2022/10/04 07:35:08;;;;;;;30.57;16.70;;;;;;;20.11;52.16;102091.44;5091753;28;20028;-73
2022/10/04 07:38:04;;;;;;;34.05;15.45;;;;;;;20.24;50.26;102091.06;5089783;28;20123;-73
2022/10/04 07:40:35;;;;;;;30.95;14.18;;;;;;;20.97;49.21;102081.66;5084016;28;20400;-73
2022/10/04 07:43:12;;;;;;;33.45;15.52;;;;;;;19.92;52.14;102090.22;5091699;28;20025;-73
2022/10/04 07:45:40;;;;;;;33.50;14.30;;;;;;;20.74;50.82;102085.94;5091420;28;20057;-73
2022/10/04 07:48:21;;;;;;;27.60;13.10;;;;;;;20.45;51.07;102093.03;5093419;28;20023;-74
2022/10/04 07:51:21;;;;;;;23.00;12.85;;;;;;;20.03;50.47;102093.44;5091762;28;20048;-73
2022/10/04 07:54:14;;;;;;;29.67;14.15;;;;;;;20.33;50.43;102102.25;5091342;28;20028;-74
2022/10/04 07:56:49;;;;;;;23.92;12.63;;;;;;;20.47;50.32;102099.16;5091968;28;20058;-73
2022/10/04 07:59:22;;;;;;;26.30;11.90;;;;;;;20.79;50.27;102099.09;5091407;28;20553;-73
2022/10/04 08:02:05;;;;;;;25.02;12.43;;;;;;;19.91;51.81;102099.13;5090832;28;20081;-73
2022/10/04 08:04:40;;;;;;;21.98;11.63;;;;;;;19.65;53.26;102101.56;5091558;28;20107;-73
2022/10/04 08:07:30;;;;;;;24.23;12.38;;;;;;;20.82;48.52;102094.53;5090764;28;20031;-73
2022/10/04 08:09:59;;;;;;;21.55;12.32;;;;;;;20.02;50.49;102097.00;5091248;28;20032;-73
2022/10/04 08:12:46;;;;;;;22.13;11.82;;;;;;;19.53;52.79;102093.09;5091184;28;20438;-73
2022/10/04 08:15:18;;;;;;;21.35;12.23;;;;;;;19.97;51.98;102104.22;5090502;28;20039;-73
2022/10/04 08:18:00;;;;;;;22.15;12.00;;;;;;;20.05;52.24;102107.53;5091075;28;20406;-73
2022/10/04 08:20:43;;;;;;;28.58;12.60;;;;;;;21.50;47.60;102100.16;5092602;28;20028;-73
2022/10/04 08:23:26;;;;;;;22.85;11.90;;;;;;;20.84;49.07;102100.66;5091177;28;20510;-73
2022/10/04 08:26:11;;;;;;;26.48;12.27;;;;;;;20.37;51.12;102100.34;5091339;28;20101;-73
2022/10/04 08:31:59;;;;;;;21.27;13.38;;;;;;;21.00;49.84;102092.16;5092424;28;20035;-73
2022/10/04 08:35:00;;;;;;;25.30;11.88;;;;;;;21.60;48.55;102089.25;5091101;28;20118;-73
2022/10/04 08:37:34;;;;;;;20.52;11.85;;;;;;;20.84;50.11;102087.38;5085194;28;20499;-73
2022/10/04 08:40:03;;;;;;;23.45;12.30;;;;;;;20.36;50.35;102096.00;5090820;28;20039;-73
2022/10/04 08:43:06;;;;;;;22.23;11.88;;;;;;;20.63;51.64;102082.72;5090261;28;20473;-73
2022/10/04 08:45:53;;;;;;;18.70;10.35;;;;;;;19.75;53.33;102102.16;5090915;28;20024;-73
2022/10/04 08:48:37;;;;;;;23.80;11.70;;;;;;;21.41;48.89;102092.50;5090993;28;20035;-73
2022/10/04 08:51:32;;;;;;;22.13;11.85;;;;;;;21.09;49.20;102086.53;5089811;28;20048;-73
2022/10/04 08:54:35;;;;;;;17.30;10.63;;;;;;;21.14;49.27;102083.72;5089030;28;20048;-72
2022/10/04 08:57:03;;;;;;;20.92;11.00;;;;;;;20.87;49.15;102090.84;5091296;28;20032;-73
2022/10/04 09:00:06;;;;;;;20.27;11.95;;;;;;;21.71;48.15;102089.69;5090713;28;20035;-72
2022/10/04 09:02:50;;;;;;;;;;;;;;;21.56;48.96;102090.28;5092449;28;20031;-73
2022/10/04 09:05:27;;;;;;;22.75;11.73;;;;;;;20.93;49.75;102093.31;5090313;28;19912;-73
2022/10/04 09:08:14;;;;;;;22.77;11.63;;;;;;;22.24;46.27;102095.69;5090521;28;20027;-73
2022/10/04 09:11:08;;;;;;;20.73;11.48;;;;;;;21.24;48.87;102097.56;5090100;28;20494;-73
2022/10/04 09:13:46;;;;;;;22.52;11.57;;;;;;;22.95;44.96;102095.50;5090537;28;20032;-73
2022/10/04 09:16:22;;;;;;;20.60;11.23;;;;;;;22.84;45.15;102088.81;5091939;28;20028;-73
2022/10/04 09:18:50;;;;;;;19.95;11.50;;;;;;;22.79;45.65;102079.28;5090216;28;20554;-73
2022/10/04 09:21:19;;;;;;;19.77;12.43;;;;;;;22.22;46.60;102085.09;5090325;28;20373;-72
2022/10/04 09:24:03;;;;;;;18.67;10.05;;;;;;;21.75;47.27;102091.31;5091629;28;20032;-73
2022/10/04 09:26:50;;;;;;;21.05;10.65;;;;;;;22.12;47.44;102089.91;5091800;28;20081;-72
2022/10/04 09:29:46;;;;;;;20.70;10.98;;;;;;;22.10;47.30;102081.13;5090366;28;20124;-72
2022/10/04 09:32:11;;;;;;;17.75;9.50;;;;;;;20.83;49.27;102080.31;5091036;28;20036;-72
2022/10/04 09:35:02;;;;;;;17.95;8.85;;;;;;;21.38;47.63;102071.34;5090353;28;20047;-73
2022/10/04 09:38:14;;;;;;;14.10;8.30;;;;;;;23.30;43.94;102063.81;5090431;28;20039;-71
2022/10/04 09:41:05;;;;;;;21.80;9.45;;;;;;;22.81;44.69;102062.31;5090166;28;20395;-72
2022/10/04 09:43:49;;;;;;;15.18;8.27;;;;;;;22.53;45.41;102052.81;5090081;28;20581;-73
2022/10/04 09:46:43;;;;;;;18.55;8.75;;;;;;;22.91;45.13;102043.25;5089597;28;20074;-72
2022/10/04 09:49:31;;;;;;;15.40;7.85;;;;;;;23.05;44.83;102043.50;5090229;28;20419;-72
2022/10/04 09:51:58;;;;;;;15.77;8.18;;;;;;;22.64;44.62;102043.50;5091885;28;20024;-72
2022/10/04 09:55:03;;;;;;;18.23;7.97;;;;;;;23.35;44.23;102048.47;5091011;28;20028;-73
2022/10/04 09:57:55;;;;;;;15.88;8.38;;;;;;;21.95;46.47;102055.09;5091473;28;20020;-72
2022/10/04 10:00:36;;;;;;;13.50;7.78;;;;;;;23.67;43.08;102056.81;5089485;28;20039;-73
2022/10/04 10:03:23;;;;;;;13.88;7.32;;;;;;;23.57;42.78;102059.03;5091301;28;20027;-72
2022/10/04 10:05:54;;;;;;;13.05;8.35;;;;;;;22.28;44.78;102068.00;5090149;28;20051;-72
2022/10/04 10:08:26;;;;;;;11.38;8.00;;;;;;;22.14;45.68;102058.78;5089309;28;20050;-72
2022/10/04 10:13:55;;;;;;;13.65;8.35;;;;;;;21.16;47.03;102072.13;5090771;28;20046;-73
2022/10/04 10:16:38;;;;;;;13.00;8.13;;;;;;;23.72;42.78;102068.13;5093183;28;20040;-73
2022/10/04 10:19:25;;;;;;;15.35;7.93;;;;;;;22.67;43.75;102067.38;5093709;28;20169;-73
2022/10/04 10:21:57;;;;;;;12.55;7.55;;;;;;;22.93;43.69;102068.03;5092667;28;20565;-72
2022/10/04 10:24:37;;;;;;;12.60;7.90;;;;;;;23.63;42.86;102063.22;5093506;28;20035;-72
2022/10/04 10:27:29;;;;;;;13.90;7.60;;;;;;;23.72;42.33;102065.47;5093637;28;20035;-73
2022/10/04 10:30:10;;;;;;;15.65;8.27;;;;;;;22.94;44.19;102061.78;5093266;28;20050;-73
2022/10/04 10:32:42;;;;;;;11.30;6.75;;;;;;;23.21;43.44;102055.28;5093343;28;20085;-72
2022/10/04 10:35:32;;;;;;;14.15;6.25;;;;;;;24.20;41.36;102053.44;5092675;28;20064;-72
2022/10/04 10:38:06;;;;;;;13.48;6.50;;;;;;;22.71;42.85;102055.66;5093453;28;20036;-72
2022/10/04 10:41:07;;;;;;;15.45;6.88;;;;;;;22.57;44.63;102052.69;5093124;28;20024;-72
2022/10/04 10:43:36;;;;;;;13.05;6.97;;;;;;;24.58;40.63;102040.94;5092483;28;20468;-72
2022/10/04 10:46:12;;;;;;;11.70;6.35;;;;;;;24.80;39.78;102041.63;5093171;28;20031;-72
2022/10/04 10:49:08;;;;;;;12.98;6.50;;;;;;;24.94;39.84;102024.00;5092384;28;20438;-72
2022/10/04 10:51:57;;;;;;;16.20;6.00;;;;;;;26.34;37.90;102023.53;5094370;28;20124;-72
2022/10/04 10:54:59;;;;;;;15.48;6.88;;;;;;;25.11;40.04;102036.47;5092728;28;20032;-72
2022/10/04 10:57:46;;;;;;;12.70;6.43;;;;;;;25.18;39.63;102043.22;5092256;28;20122;-72
2022/10/04 11:00:19;;;;;;;17.40;6.78;;;;;;;23.87;41.69;102042.53;5093028;28;20038;-72
2022/10/04 11:03:28;;;;;;;14.98;5.85;;;;;;;25.55;38.73;102047.53;5093664;28;20039;-71
2022/10/04 11:06:13;;;;;;;16.88;5.70;;;;;;;25.77;37.75;102038.28;5093963;28;20012;-72
2022/10/04 11:09:16;;;;;;;9.65;5.28;;;;;;;25.86;37.56;102032.44;5092727;28;20028;-72
2022/10/04 11:12:22;;;;;;;10.15;5.18;;;;;;;25.18;38.03;102038.78;5091990;28;20030;-72
2022/10/04 11:15:13;;;;;;;16.70;6.05;;;;;;;24.27;39.65;102037.13;5092279;28;20028;-72
2022/10/04 11:17:45;;;;;;;12.90;7.00;;;;;;;25.54;37.58;102035.09;5093317;28;20039;-72
2022/10/04 11:20:32;;;;;;;10.65;6.13;;;;;;;26.04;36.46;102037.75;5093808;28;20031;-72
2022/10/04 11:23:47;;;;;;;13.77;5.70;;;;;;;24.80;38.10;102049.63;5092378;28;20028;-72
2022/10/04 11:26:24;;;;;;;11.90;5.72;;;;;;;23.96;39.77;102051.94;5091788;28;20020;-72
2022/10/04 11:29:12;;;;;;;12.50;5.75;;;;;;;23.79;39.76;102042.03;5092306;28;20490;-71
2022/10/04 11:32:00;;;;;;;9.43;5.30;;;;;;;24.58;38.71;102025.78;5091746;28;20097;-72
2022/10/04 11:35:06;;;;;;;12.98;5.28;;;;;;;24.35;38.73;102032.28;5092166;28;20096;-72
2022/10/04 11:38:10;;;;;;;8.68;5.10;;;;;;;24.78;38.71;102040.81;5074393;28;20078;-72
2022/10/04 11:41:00;;;;;;;10.60;6.10;;;;;;;25.10;38.71;102032.97;5091928;28;20020;-72
2022/10/04 11:43:49;;;;;;;11.98;5.53;;;;;;;25.94;37.18;102025.78;5092028;28;20028;-72
2022/10/04 11:46:36;;;;;;;8.55;5.60;;;;;;;25.49;38.31;102033.63;5091376;28;20114;-72
2022/10/04 11:49:19;;;;;;;11.07;5.88;;;;;;;25.70;37.36;102018.16;5091860;28;20028;-72
2022/10/04 11:51:50;;;;;;;19.25;5.90;;;;;;;24.88;38.88;102026.03;5092464;28;20040;-72
2022/10/04 11:54:50;;;;;;;13.68;6.97;;;;;;;25.91;37.74;102022.34;5091703;28;20035;-72
2022/10/04 11:57:36;;;;;;;12.80;6.05;;;;;;;25.78;37.73;102025.78;5091743;28;20032;-73
2022/10/04 12:00:21;;;;;;;9.00;5.57;;;;;;;25.31;38.39;102022.06;5090909;28;20085;-71
2022/10/04 12:03:18;;;;;;;8.43;4.90;;;;;;;26.21;37.06;102015.34;5092869;28;20047;-72
2022/10/04 12:05:55;;;;;;;13.38;5.70;;;;;;;25.60;37.21;102016.97;5092248;28;20028;-72
2022/10/04 12:09:06;;;;;;;12.43;5.15;;;;;;;26.70;36.09;101999.06;5091746;28;20035;-72
2022/10/04 12:14:41;;;;;;;9.02;4.22;;;;;;;26.78;34.94;101990.56;5091860;28;20093;-74
2022/10/04 12:17:10;;;;;;;8.20;4.40;;;;;;;27.53;34.06;101993.13;5091493;28;20028;-73
2022/10/04 12:19:51;;;;;;;14.10;4.85;;;;;;;26.17;35.60;101990.56;5091396;28;20035;-74